sensor_id;sensor_type;location;lat;lon;timestamp;temperature;humidity
10249;DHT22;5169;50.560;9.714;2023-02-22T00:00:59;5.50;99.90
10249;DHT22;5169;50.560;9.714;2023-02-22T00:03:34;5.50;99.90
10249;DHT22;5169;50.560;9.714;2023-02-22T00:06:04;5.50;99.90
10249;DHT22;5169;50.560;9.714;2023-02-22T00:08:34;5.60;99.90
10249;DHT22;5169;50.560;9.714;2023-02-22T00:11:03;5.60;99.90
10249;DHT22;5169;50.560;9.714;2023-02-22T00:13:33;5.40;99.90
10249;DHT22;5169;50.560;9.714;2023-02-22T00:16:01;5.40;99.90
10249;DHT22;5169;50.560;9.714;2023-02-22T00:18:29;5.20;99.90
10249;DHT22;5169;50.560;9.714;2023-02-22T00:20:59;5.20;99.90
10249;DHT22;5169;50.560;9.714;2023-02-22T00:23:26;5.10;99.90
10249;DHT22;5169;50.560;9.714;2023-02-22T00:25:56;5.00;99.90
10249;DHT22;5169;50.560;9.714;2023-02-22T00:28:22;5.00;99.90
10249;DHT22;5169;50.560;9.714;2023-02-22T00:30:51;5.10;99.90
10249;DHT22;5169;50.560;9.714;2023-02-22T00:33:17;5.20;99.90
10249;DHT22;5169;50.560;9.714;2023-02-22T00:35:45;5.30;99.90
10249;DHT22;5169;50.560;9.714;2023-02-22T00:38:17;5.30;99.90
10249;DHT22;5169;50.560;9.714;2023-02-22T00:40:45;5.50;99.90
10249;DHT22;5169;50.560;9.714;2023-02-22T00:43:13;5.60;99.90
10249;DHT22;5169;50.560;9.714;2023-02-22T00:45:39;5.40;99.90
10249;DHT22;5169;50.560;9.714;2023-02-22T00:48:08;5.20;99.90
10249;DHT22;5169;50.560;9.714;2023-02-22T00:50:34;5.10;99.90
10249;DHT22;5169;50.560;9.714;2023-02-22T00:53:02;5.00;99.90
10249;DHT22;5169;50.560;9.714;2023-02-22T00:55:33;4.80;99.90
10249;DHT22;5169;50.560;9.714;2023-02-22T00:58:02;4.70;99.90
10249;DHT22;5169;50.560;9.714;2023-02-22T01:00:34;4.60;99.90
10249;DHT22;5169;50.560;9.714;2023-02-22T01:03:02;4.60;99.90
10249;DHT22;5169;50.560;9.714;2023-02-22T01:05:30;4.60;99.90
10249;DHT22;5169;50.560;9.714;2023-02-22T01:07:59;4.60;99.90
10249;DHT22;5169;50.560;9.714;2023-02-22T01:10:30;4.50;99.90
10249;DHT22;5169;50.560;9.714;2023-02-22T01:12:59;4.40;99.90
10249;DHT22;5169;50.560;9.714;2023-02-22T01:15:28;4.50;99.90
10249;DHT22;5169;50.560;9.714;2023-02-22T01:17:56;4.50;99.90
10249;DHT22;5169;50.560;9.714;2023-02-22T01:20:25;4.50;99.90
10249;DHT22;5169;50.560;9.714;2023-02-22T01:22:56;4.50;99.90
10249;DHT22;5169;50.560;9.714;2023-02-22T01:25:25;4.40;99.90
10249;DHT22;5169;50.560;9.714;2023-02-22T01:27:54;4.40;99.90
10249;DHT22;5169;50.560;9.714;2023-02-22T01:30:22;4.50;99.90
10249;DHT22;5169;50.560;9.714;2023-02-22T01:32:50;4.70;99.90
10249;DHT22;5169;50.560;9.714;2023-02-22T01:35:20;4.80;99.90
10249;DHT22;5169;50.560;9.714;2023-02-22T01:37:46;4.80;99.90
10249;DHT22;5169;50.560;9.714;2023-02-22T01:40:20;4.60;99.90
10249;DHT22;5169;50.560;9.714;2023-02-22T01:42:55;4.60;99.90
10249;DHT22;5169;50.560;9.714;2023-02-22T01:48:09;4.50;99.90
10249;DHT22;5169;50.560;9.714;2023-02-22T01:50:43;4.40;99.90
10249;DHT22;5169;50.560;9.714;2023-02-22T01:53:15;4.50;99.90
10249;DHT22;5169;50.560;9.714;2023-02-22T01:55:42;4.50;99.90
10249;DHT22;5169;50.560;9.714;2023-02-22T01:58:09;4.50;99.90
10249;DHT22;5169;50.560;9.714;2023-02-22T02:00:35;4.40;99.90
10249;DHT22;5169;50.560;9.714;2023-02-22T02:03:04;4.30;99.90
10249;DHT22;5169;50.560;9.714;2023-02-22T02:05:35;4.10;99.90
10249;DHT22;5169;50.560;9.714;2023-02-22T02:08:10;4.00;99.90
10249;DHT22;5169;50.560;9.714;2023-02-22T02:10:39;4.00;99.90
10249;DHT22;5169;50.560;9.714;2023-02-22T02:13:09;3.90;99.90
10249;DHT22;5169;50.560;9.714;2023-02-22T02:15:37;3.80;99.90
10249;DHT22;5169;50.560;9.714;2023-02-22T02:18:06;3.70;99.90
10249;DHT22;5169;50.560;9.714;2023-02-22T02:29:50;3.80;99.90
10249;DHT22;5169;50.560;9.714;2023-02-22T02:40:54;3.50;99.90
10249;DHT22;5169;50.560;9.714;2023-02-22T02:46:02;3.30;99.90
10249;DHT22;5169;50.560;9.714;2023-02-22T02:48:30;3.40;99.90
10249;DHT22;5169;50.560;9.714;2023-02-22T02:51:02;3.50;99.90
10249;DHT22;5169;50.560;9.714;2023-02-22T02:53:34;3.50;99.90
10249;DHT22;5169;50.560;9.714;2023-02-22T02:56:01;3.40;99.90
10249;DHT22;5169;50.560;9.714;2023-02-22T02:58:28;3.50;99.90
10249;DHT22;5169;50.560;9.714;2023-02-22T03:00:57;3.70;99.90
10249;DHT22;5169;50.560;9.714;2023-02-22T03:09:26;3.40;99.90
10249;DHT22;5169;50.560;9.714;2023-02-22T03:14:37;3.60;99.90
10249;DHT22;5169;50.560;9.714;2023-02-22T03:20:29;3.50;99.90
10249;DHT22;5169;50.560;9.714;2023-02-22T03:25:49;3.60;99.90
10249;DHT22;5169;50.560;9.714;2023-02-22T03:28:17;3.50;99.90
10249;DHT22;5169;50.560;9.714;2023-02-22T03:30:53;3.60;99.90
10249;DHT22;5169;50.560;9.714;2023-02-22T03:33:49;3.50;99.90
10249;DHT22;5169;50.560;9.714;2023-02-22T03:36:28;3.40;99.90
10249;DHT22;5169;50.560;9.714;2023-02-22T03:38:59;3.40;99.90
10249;DHT22;5169;50.560;9.714;2023-02-22T03:41:30;3.30;99.90
10249;DHT22;5169;50.560;9.714;2023-02-22T03:44:04;3.30;99.90
10249;DHT22;5169;50.560;9.714;2023-02-22T03:46:31;3.30;99.90
10249;DHT22;5169;50.560;9.714;2023-02-22T03:51:29;3.50;99.90
10249;DHT22;5169;50.560;9.714;2023-02-22T03:53:55;3.50;99.90
10249;DHT22;5169;50.560;9.714;2023-02-22T03:56:25;3.40;99.90
10249;DHT22;5169;50.560;9.714;2023-02-22T03:58:53;3.40;99.90
10249;DHT22;5169;50.560;9.714;2023-02-22T04:01:18;3.30;99.90
10249;DHT22;5169;50.560;9.714;2023-02-22T04:03:48;3.20;99.90
10249;DHT22;5169;50.560;9.714;2023-02-22T04:06:13;3.20;99.90
10249;DHT22;5169;50.560;9.714;2023-02-22T04:08:43;3.10;99.90
10249;DHT22;5169;50.560;9.714;2023-02-22T04:11:09;2.90;99.90
10249;DHT22;5169;50.560;9.714;2023-02-22T04:13:35;2.80;99.90
10249;DHT22;5169;50.560;9.714;2023-02-22T04:16:00;2.70;99.90
10249;DHT22;5169;50.560;9.714;2023-02-22T04:18:26;2.70;99.90
10249;DHT22;5169;50.560;9.714;2023-02-22T04:20:52;2.60;99.90
10249;DHT22;5169;50.560;9.714;2023-02-22T04:23:17;2.60;99.90
10249;DHT22;5169;50.560;9.714;2023-02-22T04:25:43;2.60;99.90
10249;DHT22;5169;50.560;9.714;2023-02-22T04:28:09;2.50;99.90
10249;DHT22;5169;50.560;9.714;2023-02-22T04:30:35;2.40;99.90
10249;DHT22;5169;50.560;9.714;2023-02-22T04:33:00;2.30;99.90
10249;DHT22;5169;50.560;9.714;2023-02-22T04:35:26;2.20;99.90
10249;DHT22;5169;50.560;9.714;2023-02-22T04:37:54;2.20;99.90
10249;DHT22;5169;50.560;9.714;2023-02-22T04:40:22;2.30;99.90
10249;DHT22;5169;50.560;9.714;2023-02-22T04:42:48;2.40;99.90
10249;DHT22;5169;50.560;9.714;2023-02-22T04:45:13;2.40;99.90
10249;DHT22;5169;50.560;9.714;2023-02-22T04:47:39;2.30;99.90
10249;DHT22;5169;50.560;9.714;2023-02-22T04:50:06;2.20;99.90
10249;DHT22;5169;50.560;9.714;2023-02-22T04:52:36;2.20;99.90
10249;DHT22;5169;50.560;9.714;2023-02-22T04:55:04;2.40;99.90
10249;DHT22;5169;50.560;9.714;2023-02-22T04:57:30;2.40;99.90
10249;DHT22;5169;50.560;9.714;2023-02-22T05:00:01;2.50;99.90
10249;DHT22;5169;50.560;9.714;2023-02-22T05:02:32;2.50;99.90
10249;DHT22;5169;50.560;9.714;2023-02-22T05:04:58;2.50;99.90
10249;DHT22;5169;50.560;9.714;2023-02-22T05:07:23;2.50;99.90
10249;DHT22;5169;50.560;9.714;2023-02-22T05:09:49;2.50;99.90
10249;DHT22;5169;50.560;9.714;2023-02-22T05:12:15;2.40;99.90
10249;DHT22;5169;50.560;9.714;2023-02-22T05:14:40;2.30;99.90
10249;DHT22;5169;50.560;9.714;2023-02-22T05:17:08;2.10;99.90
10249;DHT22;5169;50.560;9.714;2023-02-22T05:19:34;2.10;99.90
10249;DHT22;5169;50.560;9.714;2023-02-22T05:22:00;2.00;99.90
10249;DHT22;5169;50.560;9.714;2023-02-22T05:24:26;2.00;99.90
10249;DHT22;5169;50.560;9.714;2023-02-22T05:26:51;2.00;99.90
10249;DHT22;5169;50.560;9.714;2023-02-22T05:29:17;1.90;99.90
10249;DHT22;5169;50.560;9.714;2023-02-22T05:31:43;1.90;99.90
10249;DHT22;5169;50.560;9.714;2023-02-22T05:34:09;1.90;99.90
10249;DHT22;5169;50.560;9.714;2023-02-22T05:36:34;2.00;99.90
10249;DHT22;5169;50.560;9.714;2023-02-22T05:39:00;2.20;99.90
10249;DHT22;5169;50.560;9.714;2023-02-22T05:41:27;2.30;99.90
10249;DHT22;5169;50.560;9.714;2023-02-22T05:43:53;2.30;99.90
10249;DHT22;5169;50.560;9.714;2023-02-22T05:46:18;2.40;99.90
10249;DHT22;5169;50.560;9.714;2023-02-22T05:48:44;2.40;99.90
10249;DHT22;5169;50.560;9.714;2023-02-22T05:51:12;2.40;99.90
10249;DHT22;5169;50.560;9.714;2023-02-22T05:53:38;2.30;99.90
10249;DHT22;5169;50.560;9.714;2023-02-22T05:56:09;2.40;99.90
10249;DHT22;5169;50.560;9.714;2023-02-22T05:58:34;2.30;99.90
10249;DHT22;5169;50.560;9.714;2023-02-22T06:01:00;2.30;99.90
10249;DHT22;5169;50.560;9.714;2023-02-22T06:03:26;2.40;99.90
10249;DHT22;5169;50.560;9.714;2023-02-22T06:05:52;2.20;99.90
10249;DHT22;5169;50.560;9.714;2023-02-22T06:08:17;2.20;99.90
10249;DHT22;5169;50.560;9.714;2023-02-22T06:10:43;2.10;99.90
10249;DHT22;5169;50.560;9.714;2023-02-22T06:13:09;2.20;99.90
10249;DHT22;5169;50.560;9.714;2023-02-22T06:15:35;2.50;99.90
10249;DHT22;5169;50.560;9.714;2023-02-22T06:18:02;2.50;99.90
10249;DHT22;5169;50.560;9.714;2023-02-22T06:20:29;2.50;99.90
10249;DHT22;5169;50.560;9.714;2023-02-22T06:23:00;2.50;99.90
10249;DHT22;5169;50.560;9.714;2023-02-22T06:25:27;2.50;99.90
10249;DHT22;5169;50.560;9.714;2023-02-22T06:27:56;2.40;99.90
10249;DHT22;5169;50.560;9.714;2023-02-22T06:30:27;2.40;99.90
10249;DHT22;5169;50.560;9.714;2023-02-22T06:32:55;2.50;99.90
10249;DHT22;5169;50.560;9.714;2023-02-22T06:35:23;2.50;99.90
10249;DHT22;5169;50.560;9.714;2023-02-22T06:37:49;2.50;99.90
10249;DHT22;5169;50.560;9.714;2023-02-22T06:40:17;2.40;99.90
10249;DHT22;5169;50.560;9.714;2023-02-22T06:42:43;2.50;99.90
10249;DHT22;5169;50.560;9.714;2023-02-22T06:45:11;2.40;99.90
10249;DHT22;5169;50.560;9.714;2023-02-22T06:47:38;2.40;99.90
10249;DHT22;5169;50.560;9.714;2023-02-22T06:50:05;2.50;99.90
10249;DHT22;5169;50.560;9.714;2023-02-22T06:52:31;2.60;99.90
10249;DHT22;5169;50.560;9.714;2023-02-22T06:54:57;2.80;99.90
10249;DHT22;5169;50.560;9.714;2023-02-22T06:57:23;2.70;99.90
10249;DHT22;5169;50.560;9.714;2023-02-22T06:59:49;2.80;99.90
10249;DHT22;5169;50.560;9.714;2023-02-22T07:02:15;2.80;99.90
10249;DHT22;5169;50.560;9.714;2023-02-22T07:04:44;3.00;99.90
10249;DHT22;5169;50.560;9.714;2023-02-22T07:07:11;3.10;99.90
10249;DHT22;5169;50.560;9.714;2023-02-22T07:09:37;3.10;99.90
10249;DHT22;5169;50.560;9.714;2023-02-22T07:12:03;3.20;99.90
10249;DHT22;5169;50.560;9.714;2023-02-22T07:14:32;3.20;99.90
10249;DHT22;5169;50.560;9.714;2023-02-22T07:16:57;3.20;99.90
10249;DHT22;5169;50.560;9.714;2023-02-22T07:19:25;3.40;99.90
10249;DHT22;5169;50.560;9.714;2023-02-22T07:21:54;3.40;99.90
10249;DHT22;5169;50.560;9.714;2023-02-22T07:24:24;3.50;99.90
10249;DHT22;5169;50.560;9.714;2023-02-22T07:26:55;3.50;99.90
10249;DHT22;5169;50.560;9.714;2023-02-22T07:29:21;3.60;99.90
10249;DHT22;5169;50.560;9.714;2023-02-22T07:31:47;3.40;99.90
10249;DHT22;5169;50.560;9.714;2023-02-22T07:34:15;3.40;99.90
10249;DHT22;5169;50.560;9.714;2023-02-22T07:36:41;3.50;99.90
10249;DHT22;5169;50.560;9.714;2023-02-22T07:39:08;3.60;99.90
10249;DHT22;5169;50.560;9.714;2023-02-22T07:41:35;3.60;99.90
10249;DHT22;5169;50.560;9.714;2023-02-22T07:44:05;3.70;99.90
10249;DHT22;5169;50.560;9.714;2023-02-22T07:46:47;3.80;99.90
10249;DHT22;5169;50.560;9.714;2023-02-22T07:49:13;3.90;99.90
10249;DHT22;5169;50.560;9.714;2023-02-22T07:51:41;4.10;99.90
10249;DHT22;5169;50.560;9.714;2023-02-22T07:54:09;4.20;99.90
10249;DHT22;5169;50.560;9.714;2023-02-22T07:56:35;4.30;99.90
10249;DHT22;5169;50.560;9.714;2023-02-22T07:59:01;4.50;99.90
10249;DHT22;5169;50.560;9.714;2023-02-22T08:01:27;4.50;99.90
10249;DHT22;5169;50.560;9.714;2023-02-22T08:03:52;4.40;99.90
10249;DHT22;5169;50.560;9.714;2023-02-22T08:06:19;4.40;99.90
10249;DHT22;5169;50.560;9.714;2023-02-22T08:08:45;4.70;99.90
10249;DHT22;5169;50.560;9.714;2023-02-22T08:11:11;4.70;99.90
10249;DHT22;5169;50.560;9.714;2023-02-22T08:13:38;4.60;99.90
10249;DHT22;5169;50.560;9.714;2023-02-22T08:16:04;5.00;99.90
10249;DHT22;5169;50.560;9.714;2023-02-22T08:18:30;5.10;99.90
10249;DHT22;5169;50.560;9.714;2023-02-22T08:20:58;5.20;99.90
10249;DHT22;5169;50.560;9.714;2023-02-22T08:23:25;5.30;99.90
10249;DHT22;5169;50.560;9.714;2023-02-22T08:25:51;5.20;99.90
10249;DHT22;5169;50.560;9.714;2023-02-22T08:28:19;5.30;99.90
10249;DHT22;5169;50.560;9.714;2023-02-22T08:30:50;5.30;99.90
10249;DHT22;5169;50.560;9.714;2023-02-22T08:33:17;5.20;99.90
10249;DHT22;5169;50.560;9.714;2023-02-22T08:35:44;5.10;99.90
10249;DHT22;5169;50.560;9.714;2023-02-22T08:38:26;5.40;99.90
10249;DHT22;5169;50.560;9.714;2023-02-22T08:40:55;5.50;99.90
10249;DHT22;5169;50.560;9.714;2023-02-22T08:43:21;5.50;99.90
10249;DHT22;5169;50.560;9.714;2023-02-22T08:45:48;5.50;99.90
10249;DHT22;5169;50.560;9.714;2023-02-22T08:48:14;5.40;99.90
10249;DHT22;5169;50.560;9.714;2023-02-22T08:50:40;5.40;99.90
10249;DHT22;5169;50.560;9.714;2023-02-22T08:53:08;5.20;99.90
10249;DHT22;5169;50.560;9.714;2023-02-22T08:55:36;5.10;99.90
10249;DHT22;5169;50.560;9.714;2023-02-22T08:58:04;5.20;99.90
10249;DHT22;5169;50.560;9.714;2023-02-22T09:00:34;5.40;99.90
10249;DHT22;5169;50.560;9.714;2023-02-22T09:03:03;5.60;99.90
10249;DHT22;5169;50.560;9.714;2023-02-22T09:05:29;5.90;99.90
10249;DHT22;5169;50.560;9.714;2023-02-22T09:07:58;6.00;99.90
10249;DHT22;5169;50.560;9.714;2023-02-22T09:10:26;6.20;99.90
10249;DHT22;5169;50.560;9.714;2023-02-22T09:12:53;6.10;99.90
10249;DHT22;5169;50.560;9.714;2023-02-22T09:15:23;6.00;99.90
10249;DHT22;5169;50.560;9.714;2023-02-22T09:17:49;5.90;99.90
10249;DHT22;5169;50.560;9.714;2023-02-22T09:20:17;5.90;99.90
10249;DHT22;5169;50.560;9.714;2023-02-22T09:22:47;6.10;99.90
10249;DHT22;5169;50.560;9.714;2023-02-22T09:25:16;6.30;99.90
10249;DHT22;5169;50.560;9.714;2023-02-22T09:27:42;6.60;99.90
10249;DHT22;5169;50.560;9.714;2023-02-22T09:30:19;6.50;99.90
10249;DHT22;5169;50.560;9.714;2023-02-22T09:32:50;6.60;99.90
10249;DHT22;5169;50.560;9.714;2023-02-22T09:35:15;7.10;99.90
10249;DHT22;5169;50.560;9.714;2023-02-22T09:37:43;7.00;99.90
10249;DHT22;5169;50.560;9.714;2023-02-22T09:40:17;7.40;99.90
10249;DHT22;5169;50.560;9.714;2023-02-22T09:48:22;8.80;99.90
10249;DHT22;5169;50.560;9.714;2023-02-22T09:50:51;9.40;99.90
10249;DHT22;5169;50.560;9.714;2023-02-22T09:53:23;10.10;99.90
10249;DHT22;5169;50.560;9.714;2023-02-22T09:56:05;10.70;99.90
10249;DHT22;5169;50.560;9.714;2023-02-22T10:09:39;11.70;99.90
10249;DHT22;5169;50.560;9.714;2023-02-22T10:12:21;11.60;99.90
10249;DHT22;5169;50.560;9.714;2023-02-22T10:23:31;13.90;99.90
10249;DHT22;5169;50.560;9.714;2023-02-22T10:28:46;13.90;99.90
10249;DHT22;5169;50.560;9.714;2023-02-22T10:31:25;13.60;99.90
10249;DHT22;5169;50.560;9.714;2023-02-22T10:34:01;13.30;99.90
10249;DHT22;5169;50.560;9.714;2023-02-22T10:36:27;13.40;99.90
10249;DHT22;5169;50.560;9.714;2023-02-22T10:41:33;15.30;99.90
10249;DHT22;5169;50.560;9.714;2023-02-22T10:44:03;15.60;99.90
10249;DHT22;5169;50.560;9.714;2023-02-22T10:46:31;16.10;99.90
10249;DHT22;5169;50.560;9.714;2023-02-22T10:49:01;16.50;99.90
10249;DHT22;5169;50.560;9.714;2023-02-22T10:51:28;16.90;99.30
10249;DHT22;5169;50.560;9.714;2023-02-22T10:56:50;19.10;96.40
10249;DHT22;5169;50.560;9.714;2023-02-22T10:59:34;20.60;94.10
10249;DHT22;5169;50.560;9.714;2023-02-22T11:04:56;20.30;92.30
10249;DHT22;5169;50.560;9.714;2023-02-22T11:07:32;20.50;92.10
10249;DHT22;5169;50.560;9.714;2023-02-22T11:10:01;19.90;92.50
10249;DHT22;5169;50.560;9.714;2023-02-22T11:12:32;19.80;92.40
10249;DHT22;5169;50.560;9.714;2023-02-22T11:17:45;20.80;91.90
10249;DHT22;5169;50.560;9.714;2023-02-22T11:20:23;21.10;91.30
10249;DHT22;5169;50.560;9.714;2023-02-22T11:22:57;20.50;91.80
10249;DHT22;5169;50.560;9.714;2023-02-22T11:25:35;20.30;92.00
10249;DHT22;5169;50.560;9.714;2023-02-22T11:28:07;20.80;91.80
10249;DHT22;5169;50.560;9.714;2023-02-22T11:30:40;20.80;92.10
10249;DHT22;5169;50.560;9.714;2023-02-22T11:33:21;21.20;91.40
10249;DHT22;5169;50.560;9.714;2023-02-22T11:35:56;22.20;89.40
10249;DHT22;5169;50.560;9.714;2023-02-22T11:38:30;22.40;87.80
10249;DHT22;5169;50.560;9.714;2023-02-22T11:41:19;21.00;89.80
10249;DHT22;5169;50.560;9.714;2023-02-22T11:43:49;21.10;90.70
10249;DHT22;5169;50.560;9.714;2023-02-22T11:46:27;20.10;90.70
10249;DHT22;5169;50.560;9.714;2023-02-22T11:49:01;19.40;92.20
10249;DHT22;5169;50.560;9.714;2023-02-22T12:07:30;18.30;95.20
10249;DHT22;5169;50.560;9.714;2023-02-22T12:12:58;18.70;95.20
10249;DHT22;5169;50.560;9.714;2023-02-22T12:20:57;18.80;94.20
10249;DHT22;5169;50.560;9.714;2023-02-22T12:23:25;19.20;94.00
10249;DHT22;5169;50.560;9.714;2023-02-22T12:26:02;19.70;93.80
10249;DHT22;5169;50.560;9.714;2023-02-22T12:33:49;20.90;91.90
10249;DHT22;5169;50.560;9.714;2023-02-22T12:36:20;20.10;92.20
10249;DHT22;5169;50.560;9.714;2023-02-22T12:39:01;20.60;92.20
10249;DHT22;5169;50.560;9.714;2023-02-22T12:41:42;21.60;90.70
10249;DHT22;5169;50.560;9.714;2023-02-22T12:44:19;22.90;89.00
10249;DHT22;5169;50.560;9.714;2023-02-22T12:46:51;23.80;84.20
10249;DHT22;5169;50.560;9.714;2023-02-22T12:49:41;23.70;82.50
10249;DHT22;5169;50.560;9.714;2023-02-22T12:52:09;21.90;86.40
10249;DHT22;5169;50.560;9.714;2023-02-22T12:57:50;19.60;91.40
10249;DHT22;5169;50.560;9.714;2023-02-22T13:03:00;21.60;90.00
10249;DHT22;5169;50.560;9.714;2023-02-22T13:05:31;21.70;88.30
10249;DHT22;5169;50.560;9.714;2023-02-22T13:08:33;21.70;87.70
10249;DHT22;5169;50.560;9.714;2023-02-22T13:16:51;20.60;90.90
10249;DHT22;5169;50.560;9.714;2023-02-22T13:22:06;20.20;90.70
10249;DHT22;5169;50.560;9.714;2023-02-22T13:24:54;19.80;91.90
10249;DHT22;5169;50.560;9.714;2023-02-22T13:29:57;20.50;90.60
10249;DHT22;5169;50.560;9.714;2023-02-22T13:32:36;20.60;90.60
10249;DHT22;5169;50.560;9.714;2023-02-22T13:35:10;21.30;90.10
10249;DHT22;5169;50.560;9.714;2023-02-22T13:46:15;21.70;88.10
10249;DHT22;5169;50.560;9.714;2023-02-22T13:49:23;21.80;88.20
10249;DHT22;5169;50.560;9.714;2023-02-22T13:52:14;22.10;88.20
10249;DHT22;5169;50.560;9.714;2023-02-22T13:55:06;22.40;85.20
10249;DHT22;5169;50.560;9.714;2023-02-22T13:57:39;22.30;85.30
10249;DHT22;5169;50.560;9.714;2023-02-22T14:05:47;22.80;82.40
10249;DHT22;5169;50.560;9.714;2023-02-22T14:13:17;19.70;90.60
10249;DHT22;5169;50.560;9.714;2023-02-22T14:18:42;17.70;93.80
10249;DHT22;5169;50.560;9.714;2023-02-22T14:23:38;16.70;96.00
10249;DHT22;5169;50.560;9.714;2023-02-22T14:26:30;16.40;96.30
10249;DHT22;5169;50.560;9.714;2023-02-22T14:29:13;16.30;96.90
10249;DHT22;5169;50.560;9.714;2023-02-22T14:34:13;16.10;97.20
10249;DHT22;5169;50.560;9.714;2023-02-22T14:36:58;16.10;97.00
10249;DHT22;5169;50.560;9.714;2023-02-22T14:39:40;15.80;97.00
10249;DHT22;5169;50.560;9.714;2023-02-22T14:42:27;15.60;97.10
10249;DHT22;5169;50.560;9.714;2023-02-22T14:52:41;15.50;97.00
10249;DHT22;5169;50.560;9.714;2023-02-22T14:57:48;15.50;97.20
10249;DHT22;5169;50.560;9.714;2023-02-22T15:00:23;15.40;96.50
10249;DHT22;5169;50.560;9.714;2023-02-22T15:02:58;15.20;96.80
10249;DHT22;5169;50.560;9.714;2023-02-22T15:05:26;15.00;97.30
10249;DHT22;5169;50.560;9.714;2023-02-22T15:07:59;14.90;97.80
10249;DHT22;5169;50.560;9.714;2023-02-22T15:12:59;14.70;97.80
10249;DHT22;5169;50.560;9.714;2023-02-22T15:15:46;14.70;97.80
10249;DHT22;5169;50.560;9.714;2023-02-22T15:18:33;14.50;98.10
10249;DHT22;5169;50.560;9.714;2023-02-22T15:21:24;14.30;98.40
10249;DHT22;5169;50.560;9.714;2023-02-22T15:23:53;14.20;98.80
10249;DHT22;5169;50.560;9.714;2023-02-22T15:26:33;14.10;99.10
10249;DHT22;5169;50.560;9.714;2023-02-22T15:29:14;14.10;99.40
10249;DHT22;5169;50.560;9.714;2023-02-22T15:31:41;14.10;99.30
10249;DHT22;5169;50.560;9.714;2023-02-22T15:36:44;14.00;99.90
10249;DHT22;5169;50.560;9.714;2023-02-22T15:39:31;14.00;99.90
10249;DHT22;5169;50.560;9.714;2023-02-22T15:42:09;13.90;99.90
10249;DHT22;5169;50.560;9.714;2023-02-22T15:44:40;13.80;99.90
10249;DHT22;5169;50.560;9.714;2023-02-22T15:47:11;13.80;99.90
10249;DHT22;5169;50.560;9.714;2023-02-22T15:49:39;13.80;99.90
10249;DHT22;5169;50.560;9.714;2023-02-22T15:52:21;13.80;99.90
10249;DHT22;5169;50.560;9.714;2023-02-22T15:54:52;13.70;99.90
10249;DHT22;5169;50.560;9.714;2023-02-22T15:57:21;13.70;99.90
10249;DHT22;5169;50.560;9.714;2023-02-22T15:59:54;13.70;99.90
10249;DHT22;5169;50.560;9.714;2023-02-22T16:02:41;13.50;99.90
10249;DHT22;5169;50.560;9.714;2023-02-22T16:05:10;13.50;99.90
10249;DHT22;5169;50.560;9.714;2023-02-22T16:07:48;13.40;99.90
10249;DHT22;5169;50.560;9.714;2023-02-22T16:10:28;13.40;99.90
10249;DHT22;5169;50.560;9.714;2023-02-22T16:13:24;13.30;99.90
10249;DHT22;5169;50.560;9.714;2023-02-22T16:18:25;13.00;99.90
10249;DHT22;5169;50.560;9.714;2023-02-22T16:21:00;13.00;99.90
10249;DHT22;5169;50.560;9.714;2023-02-22T16:23:27;12.90;99.90
10249;DHT22;5169;50.560;9.714;2023-02-22T16:26:24;12.80;99.90
10249;DHT22;5169;50.560;9.714;2023-02-22T16:29:23;12.80;99.90
10249;DHT22;5169;50.560;9.714;2023-02-22T16:31:40;12.50;99.90
10249;DHT22;5169;50.560;9.714;2023-02-22T16:34:07;12.40;99.90
10249;DHT22;5169;50.560;9.714;2023-02-22T16:36:42;12.50;99.90
10249;DHT22;5169;50.560;9.714;2023-02-22T16:41:44;12.40;99.90
10249;DHT22;5169;50.560;9.714;2023-02-22T16:44:12;12.20;99.90
10249;DHT22;5169;50.560;9.714;2023-02-22T16:46:38;12.10;99.90
10249;DHT22;5169;50.560;9.714;2023-02-22T16:49:08;12.00;99.90
10249;DHT22;5169;50.560;9.714;2023-02-22T16:51:55;11.90;99.90
10249;DHT22;5169;50.560;9.714;2023-02-22T16:54:32;11.80;99.90
10249;DHT22;5169;50.560;9.714;2023-02-22T16:57:00;11.80;99.90
10249;DHT22;5169;50.560;9.714;2023-02-22T16:59:30;11.70;99.90
10249;DHT22;5169;50.560;9.714;2023-02-22T17:01:59;11.70;99.90
10249;DHT22;5169;50.560;9.714;2023-02-22T17:04:25;11.60;99.90
10249;DHT22;5169;50.560;9.714;2023-02-22T17:06:53;11.50;99.90
10249;DHT22;5169;50.560;9.714;2023-02-22T17:09:19;11.40;99.90
10249;DHT22;5169;50.560;9.714;2023-02-22T17:11:48;11.30;99.90
10249;DHT22;5169;50.560;9.714;2023-02-22T17:14:20;11.30;99.90
10249;DHT22;5169;50.560;9.714;2023-02-22T17:16:48;11.20;99.90
10249;DHT22;5169;50.560;9.714;2023-02-22T17:19:16;11.10;99.90
10249;DHT22;5169;50.560;9.714;2023-02-22T17:21:42;11.00;99.90
10249;DHT22;5169;50.560;9.714;2023-02-22T17:24:12;10.90;99.90
10249;DHT22;5169;50.560;9.714;2023-02-22T17:26:42;10.80;99.90
10249;DHT22;5169;50.560;9.714;2023-02-22T17:29:08;10.80;99.90
10249;DHT22;5169;50.560;9.714;2023-02-22T17:31:36;10.80;99.90
10249;DHT22;5169;50.560;9.714;2023-02-22T17:34:04;10.70;99.90
10249;DHT22;5169;50.560;9.714;2023-02-22T17:36:31;10.60;99.90
10249;DHT22;5169;50.560;9.714;2023-02-22T17:38:57;10.50;99.90
10249;DHT22;5169;50.560;9.714;2023-02-22T17:41:24;10.50;99.90
10249;DHT22;5169;50.560;9.714;2023-02-22T17:43:49;10.50;99.90
10249;DHT22;5169;50.560;9.714;2023-02-22T17:46:16;10.50;99.90
10249;DHT22;5169;50.560;9.714;2023-02-22T17:48:44;10.50;99.90
10249;DHT22;5169;50.560;9.714;2023-02-22T17:51:12;10.40;99.90
10249;DHT22;5169;50.560;9.714;2023-02-22T17:53:39;10.40;99.90
10249;DHT22;5169;50.560;9.714;2023-02-22T17:56:12;10.40;99.90
10249;DHT22;5169;50.560;9.714;2023-02-22T17:58:39;10.40;99.90
10249;DHT22;5169;50.560;9.714;2023-02-22T18:01:05;10.40;99.90
10249;DHT22;5169;50.560;9.714;2023-02-22T18:03:33;10.40;99.90
10249;DHT22;5169;50.560;9.714;2023-02-22T18:06:04;10.40;99.90
10249;DHT22;5169;50.560;9.714;2023-02-22T18:08:30;10.40;99.90
10249;DHT22;5169;50.560;9.714;2023-02-22T18:11:02;10.40;99.90
10249;DHT22;5169;50.560;9.714;2023-02-22T18:13:29;10.40;99.90
10249;DHT22;5169;50.560;9.714;2023-02-22T18:15:58;10.40;99.90
10249;DHT22;5169;50.560;9.714;2023-02-22T18:18:24;10.50;99.90
10249;DHT22;5169;50.560;9.714;2023-02-22T18:20:52;10.40;99.90
10249;DHT22;5169;50.560;9.714;2023-02-22T18:23:24;10.40;99.90
10249;DHT22;5169;50.560;9.714;2023-02-22T18:25:52;10.40;99.90
10249;DHT22;5169;50.560;9.714;2023-02-22T18:28:20;10.40;99.90
10249;DHT22;5169;50.560;9.714;2023-02-22T18:30:49;10.40;99.90
10249;DHT22;5169;50.560;9.714;2023-02-22T18:33:16;10.40;99.90
10249;DHT22;5169;50.560;9.714;2023-02-22T18:35:48;10.40;99.90
10249;DHT22;5169;50.560;9.714;2023-02-22T18:38:18;10.30;99.90
10249;DHT22;5169;50.560;9.714;2023-02-22T18:41:03;10.30;99.90
10249;DHT22;5169;50.560;9.714;2023-02-22T18:43:29;10.20;99.90
10249;DHT22;5169;50.560;9.714;2023-02-22T18:46:10;10.30;99.90
10249;DHT22;5169;50.560;9.714;2023-02-22T18:48:36;10.40;99.90
10249;DHT22;5169;50.560;9.714;2023-02-22T18:51:06;10.30;99.90
10249;DHT22;5169;50.560;9.714;2023-02-22T18:53:38;10.30;99.90
10249;DHT22;5169;50.560;9.714;2023-02-22T18:56:13;10.20;99.90
10249;DHT22;5169;50.560;9.714;2023-02-22T18:58:40;10.20;99.90
10249;DHT22;5169;50.560;9.714;2023-02-22T19:01:15;10.30;99.90
10249;DHT22;5169;50.560;9.714;2023-02-22T19:03:40;10.20;99.90
10249;DHT22;5169;50.560;9.714;2023-02-22T19:06:09;10.20;99.90
10249;DHT22;5169;50.560;9.714;2023-02-22T19:08:39;10.20;99.90